Terminal Aerodrome Forecast
Issued by NWS

Home | Current Version | Previous Version | Text Only | Print | Product List | Glossary On
Versions: 1 2 3 4 5 6 7 8 9 10 11 12 13
000
FTUS41 KBTV 251127
TAFMSS
TAF
KMSS 251127Z 2512/2612 27008KT P6SM SCT040 BKN070
     FM251500 28009G17KT P6SM BKN040
     FM260100 28003KT P6SM SCT040=

USA.gov is the U.S. government's official web portal to all federal, state and local government web resources and services.